createdAt,value
2022-08-28T00:00:20.827Z,0.00
2022-08-28T00:01:20.751Z,0.00
2022-08-28T00:02:20.736Z,0.00
2022-08-28T00:03:20.602Z,0.00
2022-08-28T00:04:20.560Z,0.00
2022-08-28T00:05:20.454Z,0.00
2022-08-28T00:06:20.381Z,0.00
2022-08-28T00:07:20.305Z,0.00
2022-08-28T00:08:20.231Z,0.00
2022-08-28T00:09:20.158Z,0.00
2022-08-28T00:10:20.087Z,0.00
2022-08-28T00:11:20.011Z,0.00
2022-08-28T00:12:19.938Z,0.00
2022-08-28T00:13:19.862Z,0.00
2022-08-28T00:14:19.789Z,0.00
2022-08-28T00:15:19.714Z,0.00
2022-08-28T00:16:19.713Z,0.00
2022-08-28T00:17:19.565Z,0.00
2022-08-28T00:18:19.491Z,0.00
2022-08-28T00:19:19.415Z,0.00
2022-08-28T00:20:19.342Z,0.00
2022-08-28T00:21:19.269Z,0.00
2022-08-28T00:22:19.196Z,0.00
2022-08-28T00:23:19.120Z,0.00
2022-08-28T00:24:19.048Z,0.00
2022-08-28T00:25:18.974Z,0.00
2022-08-28T00:26:18.898Z,0.00
2022-08-28T00:27:18.826Z,0.00
2022-08-28T00:28:24.227Z,0.00
2022-08-28T00:29:18.675Z,0.00
2022-08-28T00:30:18.603Z,0.00
2022-08-28T00:31:18.561Z,0.00
2022-08-28T00:32:18.552Z,0.00
2022-08-28T00:33:18.379Z,0.00
2022-08-28T00:34:18.305Z,0.00
2022-08-28T00:35:18.229Z,0.00
2022-08-28T00:36:18.157Z,0.00
2022-08-28T00:37:18.081Z,0.00
2022-08-28T00:38:18.009Z,0.00
2022-08-28T00:39:17.932Z,0.00
2022-08-28T00:40:17.923Z,0.00
2022-08-28T00:41:17.786Z,0.00
2022-08-28T00:42:17.711Z,0.00
2022-08-28T00:43:17.938Z,0.00
2022-08-28T00:44:17.565Z,0.00
2022-08-28T00:45:17.488Z,0.00
2022-08-28T00:46:17.488Z,0.00
2022-08-28T00:47:17.338Z,0.00
2022-08-28T00:48:17.266Z,0.00
2022-08-28T00:49:17.193Z,0.00
2022-08-28T00:50:17.119Z,0.00
2022-08-28T00:51:17.046Z,0.00
2022-08-28T00:52:16.969Z,0.00
2022-08-28T00:53:16.894Z,0.00
2022-08-28T00:54:16.821Z,0.00
2022-08-28T00:55:16.744Z,0.00
2022-08-28T00:56:16.671Z,0.00
2022-08-28T00:57:16.597Z,0.00
2022-08-28T00:58:16.531Z,0.00
2022-08-28T00:59:16.447Z,0.00
2022-08-28T01:00:16.377Z,0.00
2022-08-28T01:01:16.332Z,0.00
2022-08-28T01:02:16.229Z,0.00
2022-08-28T01:03:16.151Z,0.00
2022-08-28T01:04:16.079Z,0.00
2022-08-28T01:05:16.004Z,0.00
2022-08-28T01:06:15.930Z,0.00
2022-08-28T01:07:15.855Z,0.00
2022-08-28T01:08:15.786Z,0.00
2022-08-28T01:09:15.727Z,0.00
2022-08-28T01:10:15.784Z,0.00
2022-08-28T01:11:15.559Z,0.00
2022-08-28T01:12:15.486Z,0.00
2022-08-28T01:13:15.610Z,0.00
2022-08-28T01:14:15.337Z,0.00
2022-08-28T01:15:15.266Z,0.00
2022-08-28T01:16:15.372Z,0.00
2022-08-28T01:17:15.115Z,0.00
2022-08-28T01:18:15.238Z,0.00
2022-08-28T01:19:14.966Z,0.00
2022-08-28T01:20:14.894Z,0.00
2022-08-28T01:21:19.997Z,0.00
2022-08-28T01:22:14.745Z,0.00
2022-08-28T01:23:14.670Z,0.00
2022-08-28T01:24:14.596Z,0.00
2022-08-28T01:25:14.522Z,0.00
2022-08-28T01:26:14.448Z,0.00
2022-08-28T01:27:14.372Z,0.00
2022-08-28T01:28:14.626Z,0.00
2022-08-28T01:29:14.225Z,0.00
2022-08-28T01:30:14.201Z,0.00
2022-08-28T01:31:14.127Z,0.00
2022-08-28T01:32:14.010Z,0.00
2022-08-28T01:33:13.926Z,0.00
2022-08-28T01:34:13.907Z,0.00
2022-08-28T01:35:13.779Z,0.00
2022-08-28T01:36:13.707Z,0.00
2022-08-28T01:37:13.629Z,0.00
2022-08-28T01:38:17.622Z,0.00
2022-08-28T01:39:13.482Z,0.00
2022-08-28T01:40:13.448Z,0.00
2022-08-28T01:41:13.334Z,0.00
2022-08-28T01:42:13.260Z,0.00
2022-08-28T01:43:13.185Z,0.00
2022-08-28T01:44:13.113Z,0.00
2022-08-28T01:45:13.037Z,0.00
2022-08-28T01:46:13.052Z,0.00
2022-08-28T01:47:12.890Z,0.00
2022-08-28T01:48:12.987Z,0.00
2022-08-28T01:49:12.742Z,0.00
2022-08-28T01:50:12.669Z,0.00
2022-08-28T01:51:12.592Z,0.00
2022-08-28T01:52:12.519Z,0.00
2022-08-28T01:53:12.631Z,0.00
2022-08-28T01:54:12.375Z,0.00
2022-08-28T01:55:12.295Z,0.00
2022-08-28T01:56:12.222Z,0.00
2022-08-28T01:57:12.146Z,0.00
2022-08-28T01:58:12.268Z,0.00
2022-08-28T01:59:11.998Z,0.00
2022-08-28T02:00:11.926Z,0.00
2022-08-28T02:01:11.888Z,0.00
2022-08-28T02:02:11.778Z,0.00
2022-08-28T02:03:11.700Z,0.00
2022-08-28T02:04:11.670Z,0.00
2022-08-28T02:05:11.553Z,0.00
2022-08-28T02:06:11.490Z,0.00
2022-08-28T02:07:11.404Z,0.00
2022-08-28T02:08:11.458Z,0.00
2022-08-28T02:09:14.727Z,0.00
2022-08-28T02:10:11.187Z,0.00
2022-08-28T02:11:11.107Z,0.00
2022-08-28T02:12:11.034Z,0.00
2022-08-28T02:13:10.959Z,0.00
2022-08-28T02:14:10.882Z,0.00
2022-08-28T02:15:10.810Z,0.00
2022-08-28T02:16:10.875Z,0.00
2022-08-28T02:17:10.661Z,0.00
2022-08-28T02:18:10.777Z,0.00
2022-08-28T02:19:10.511Z,0.00
2022-08-28T02:20:10.441Z,0.00
2022-08-28T02:21:10.366Z,0.00
2022-08-28T02:22:10.291Z,0.00
2022-08-28T02:23:10.214Z,0.00
2022-08-28T02:24:10.141Z,0.00
2022-08-28T02:25:10.065Z,0.00
2022-08-28T02:26:09.990Z,0.00
2022-08-28T02:27:09.915Z,0.00
2022-08-28T02:28:09.891Z,0.00
2022-08-28T02:29:09.767Z,0.00
2022-08-28T02:30:09.695Z,0.00
2022-08-28T02:31:09.861Z,0.00
2022-08-28T02:32:09.550Z,0.00
2022-08-28T02:33:09.470Z,0.00
2022-08-28T02:34:09.397Z,0.00
2022-08-28T02:35:12.129Z,0.00
2022-08-28T02:36:09.246Z,0.00
2022-08-28T02:37:09.171Z,0.00
2022-08-28T02:38:09.172Z,0.00
2022-08-28T02:39:09.021Z,0.00
2022-08-28T02:40:08.983Z,0.00
2022-08-28T02:41:08.889Z,0.00
2022-08-28T02:42:08.800Z,0.00
2022-08-28T02:43:08.723Z,0.00
2022-08-28T02:44:08.650Z,0.00
2022-08-28T02:45:08.574Z,0.00
2022-08-28T02:46:08.560Z,0.00
2022-08-28T02:47:08.425Z,0.00
2022-08-28T02:48:08.535Z,0.00
2022-08-28T02:49:08.277Z,0.00
2022-08-28T02:50:08.204Z,0.00
2022-08-28T02:51:08.127Z,0.00
2022-08-28T02:52:08.053Z,0.00
2022-08-28T02:53:07.978Z,0.00
2022-08-28T02:54:07.907Z,0.00
2022-08-28T02:55:07.828Z,0.00
2022-08-28T02:56:07.755Z,0.00
2022-08-28T02:57:07.679Z,0.00
2022-08-28T02:58:07.640Z,0.00
2022-08-28T02:59:07.530Z,0.00
2022-08-28T03:00:07.456Z,0.00
2022-08-28T03:01:07.466Z,0.00
2022-08-28T03:02:07.550Z,0.00
2022-08-28T03:03:07.231Z,0.00
2022-08-28T03:04:07.158Z,0.00
2022-08-28T03:05:07.085Z,0.00
2022-08-28T03:06:07.010Z,0.00
2022-08-28T03:07:06.934Z,0.00
2022-08-28T03:08:06.926Z,0.00
2022-08-28T03:09:06.785Z,0.00
2022-08-28T03:10:06.711Z,0.00
2022-08-28T03:11:06.633Z,0.00
2022-08-28T03:12:06.561Z,0.00
2022-08-28T03:13:06.485Z,0.00
2022-08-28T03:14:06.411Z,0.00
2022-08-28T03:15:06.336Z,0.00
2022-08-28T03:16:06.261Z,0.00
2022-08-28T03:17:06.184Z,0.00
2022-08-28T03:18:08.107Z,0.00
2022-08-28T03:19:06.041Z,0.00
2022-08-28T03:20:05.964Z,0.00
2022-08-28T03:21:05.890Z,0.00
2022-08-28T03:22:05.815Z,0.00
2022-08-28T03:23:05.790Z,0.00
2022-08-28T03:24:05.663Z,0.00
2022-08-28T03:25:05.588Z,0.00
2022-08-28T03:26:05.516Z,0.00
2022-08-28T03:27:05.440Z,0.00
2022-08-28T03:28:05.422Z,0.00
2022-08-28T03:29:05.340Z,0.00
2022-08-28T03:30:05.217Z,0.00
2022-08-28T03:31:05.246Z,0.00
2022-08-28T03:32:05.072Z,0.00
2022-08-28T03:33:04.994Z,0.00
2022-08-28T03:34:04.919Z,0.00
2022-08-28T03:35:04.842Z,0.00
2022-08-28T03:36:04.940Z,0.00
2022-08-28T03:37:04.693Z,0.00
2022-08-28T03:38:04.651Z,0.00
2022-08-28T03:39:04.545Z,0.00
2022-08-28T03:40:04.509Z,0.00
2022-08-28T03:41:04.396Z,0.00
2022-08-28T03:42:04.323Z,0.00
2022-08-28T03:43:04.247Z,0.00
2022-08-28T03:44:04.322Z,0.00
2022-08-28T03:45:04.098Z,0.00
2022-08-28T03:46:04.089Z,0.00
2022-08-28T03:47:04.150Z,0.00
2022-08-28T03:48:03.875Z,0.00
2022-08-28T03:49:03.798Z,0.00
2022-08-28T03:51:36.244Z,0.00
2022-08-28T03:52:36.169Z,0.00
2022-08-28T03:53:36.094Z,0.00
2022-08-28T03:54:36.016Z,0.00
2022-08-28T03:55:35.944Z,0.00
2022-08-28T03:56:35.878Z,0.00
2022-08-28T03:57:35.795Z,0.00
2022-08-28T03:58:35.717Z,0.00
2022-08-28T03:59:35.645Z,0.00
2022-08-28T04:00:35.568Z,0.00
2022-08-28T04:01:35.564Z,0.00
2022-08-28T04:02:35.419Z,0.00
2022-08-28T04:03:35.458Z,0.00
2022-08-28T04:04:35.271Z,0.00
2022-08-28T04:05:35.199Z,0.00
2022-08-28T04:06:36.134Z,0.00
2022-08-28T04:07:35.045Z,0.00
2022-08-28T04:08:34.970Z,0.00
2022-08-28T04:09:34.896Z,0.00
2022-08-28T04:10:34.821Z,0.00
2022-08-28T04:11:34.747Z,4.00
2022-08-28T04:12:35.418Z,4.00
2022-08-28T04:13:34.597Z,4.00
2022-08-28T04:14:34.519Z,0.00
2022-08-28T04:15:34.447Z,4.00
2022-08-28T04:16:34.434Z,4.00
2022-08-28T04:17:34.302Z,4.00
2022-08-28T04:18:34.220Z,4.00
2022-08-28T04:19:34.148Z,8.00
2022-08-28T04:20:34.072Z,8.00
2022-08-28T04:21:33.998Z,8.00
2022-08-28T04:22:33.919Z,8.00
2022-08-28T04:23:33.847Z,12.00
2022-08-28T04:24:33.771Z,12.00
2022-08-28T04:25:33.697Z,16.00
2022-08-28T04:26:33.620Z,16.00
2022-08-28T04:27:33.547Z,16.00
2022-08-28T04:28:33.469Z,20.00
2022-08-28T04:29:33.397Z,20.00
2022-08-28T04:30:33.323Z,24.00
2022-08-28T04:31:33.332Z,28.00
2022-08-28T04:32:33.172Z,32.00
2022-08-28T04:33:33.097Z,36.00
2022-08-28T04:34:33.021Z,40.00
2022-08-28T04:35:32.945Z,44.00
2022-08-28T04:36:32.872Z,48.00
2022-08-28T04:37:32.797Z,56.00
2022-08-28T04:39:32.646Z,68.00
2022-08-28T04:40:32.611Z,76.00
2022-08-28T04:41:32.500Z,80.00
2022-08-28T04:42:32.422Z,88.00
2022-08-28T04:43:32.345Z,96.00
2022-08-28T04:44:32.271Z,100.00
2022-08-28T04:45:32.270Z,108.00
2022-08-28T04:46:32.122Z,116.00
2022-08-28T04:47:32.042Z,124.00
2022-08-28T04:48:31.969Z,140.00
2022-08-28T04:49:31.896Z,152.00
2022-08-28T04:50:31.819Z,164.00
2022-08-28T04:51:31.745Z,180.00
2022-08-28T04:52:31.669Z,196.00
2022-08-28T04:53:31.595Z,208.00
2022-08-28T04:54:31.520Z,212.00
2022-08-28T04:55:53.919Z,216.00
2022-08-28T04:56:31.372Z,220.00
2022-08-28T04:57:36.091Z,228.00
2022-08-28T04:58:31.218Z,232.00
2022-08-28T04:59:31.145Z,240.00
2022-08-28T05:00:31.171Z,252.00
2022-08-28T05:01:31.063Z,260.00
2022-08-28T05:02:31.021Z,276.00
2022-08-28T05:03:30.845Z,292.00
2022-08-28T05:04:30.774Z,304.00
2022-08-28T05:05:30.693Z,320.00
2022-08-28T05:06:30.621Z,332.00
2022-08-28T05:07:30.545Z,336.00
2022-08-28T05:08:30.472Z,340.00
2022-08-28T05:09:30.395Z,348.00
2022-08-28T05:10:30.321Z,360.00
2022-08-28T05:11:34.287Z,368.00
2022-08-28T05:12:30.172Z,368.00
2022-08-28T05:13:30.095Z,376.00
2022-08-28T05:14:30.019Z,376.00
2022-08-28T05:15:29.948Z,372.00
2022-08-28T05:16:29.909Z,384.00
2022-08-28T05:17:32.203Z,396.00
2022-08-28T05:18:29.720Z,416.00
2022-08-28T05:19:29.645Z,432.00
2022-08-28T05:20:29.570Z,448.00
2022-08-28T05:21:29.504Z,456.00
2022-08-28T05:22:29.435Z,476.00
2022-08-28T05:23:29.349Z,496.00
2022-08-28T05:24:29.273Z,524.00
2022-08-28T05:25:29.196Z,544.00
2022-08-28T05:26:29.918Z,572.00
2022-08-28T05:27:29.051Z,600.00
2022-08-28T05:28:28.997Z,636.00
2022-08-28T05:29:28.897Z,668.00
2022-08-28T05:30:28.823Z,704.00
2022-08-28T05:31:28.891Z,736.00
2022-08-28T05:32:28.671Z,776.00
2022-08-28T05:33:28.598Z,812.00
2022-08-28T05:34:28.523Z,848.00
2022-08-28T05:35:28.446Z,880.00
2022-08-28T05:36:32.634Z,904.00
2022-08-28T05:37:28.299Z,940.00
2022-08-28T05:38:28.223Z,976.00
2022-08-28T05:39:28.150Z,1004.00
2022-08-28T05:40:28.172Z,1032.00
2022-08-28T05:41:28.001Z,1052.00
2022-08-28T05:42:30.915Z,1072.00
2022-08-28T05:43:27.851Z,1100.00
2022-08-28T05:44:27.777Z,1124.00
2022-08-28T05:45:27.702Z,1140.00
2022-08-28T05:46:27.675Z,1160.00
2022-08-28T05:47:27.553Z,1180.00
2022-08-28T05:48:27.482Z,1204.00
2022-08-28T05:49:27.403Z,1232.00
2022-08-28T05:50:27.329Z,1248.00
2022-08-28T05:51:27.627Z,1264.00
2022-08-28T05:52:27.176Z,1288.00
2022-08-28T05:53:27.103Z,1308.00
2022-08-28T05:54:29.045Z,1332.00
2022-08-28T05:55:26.953Z,1348.00
2022-08-28T05:56:26.878Z,1372.00
2022-08-28T05:57:26.812Z,1392.00
2022-08-28T05:58:26.728Z,1416.00
2022-08-28T05:59:26.653Z,1428.00
2022-08-28T06:00:26.580Z,1444.00
2022-08-28T06:01:26.549Z,1460.00
2022-08-28T06:02:26.430Z,1484.00
2022-08-28T06:03:26.352Z,1532.00
2022-08-28T06:04:26.411Z,1588.00
2022-08-28T06:05:26.205Z,1648.00
2022-08-28T06:06:26.132Z,1704.00
2022-08-28T06:07:26.057Z,1756.00
2022-08-28T06:08:25.983Z,1804.00
2022-08-28T06:09:29.321Z,1856.00
2022-08-28T06:10:25.835Z,1912.00
2022-08-28T06:11:25.755Z,1976.00
2022-08-28T06:12:25.684Z,2020.00
2022-08-28T06:13:25.610Z,2060.00
2022-08-28T06:14:25.533Z,2104.00
2022-08-28T06:15:25.460Z,2136.00
2022-08-28T06:16:25.606Z,2160.00
2022-08-28T06:17:25.309Z,2184.00
2022-08-28T06:18:25.235Z,2180.00
2022-08-28T06:19:25.177Z,2188.00
2022-08-28T06:20:25.087Z,2212.00
2022-08-28T06:21:25.010Z,2248.00
2022-08-28T06:22:24.935Z,2252.00
2022-08-28T06:23:24.861Z,2268.00
2022-08-28T06:24:24.788Z,2248.00
2022-08-28T06:25:24.712Z,2220.00
2022-08-28T06:26:24.637Z,2148.00
2022-08-28T06:27:24.562Z,2076.00
2022-08-28T06:28:24.487Z,2000.00
2022-08-28T06:29:24.949Z,1960.00
2022-08-28T06:30:24.339Z,1964.00
2022-08-28T06:31:26.486Z,1996.00
2022-08-28T06:32:24.233Z,2036.00
2022-08-28T06:33:24.114Z,2084.00
2022-08-28T06:34:24.038Z,2132.00
2022-08-28T06:35:23.966Z,2176.00
2022-08-28T06:36:23.890Z,2208.00
2022-08-28T06:37:23.814Z,2260.00
2022-08-28T06:38:23.743Z,2304.00
2022-08-28T06:39:23.667Z,2344.00
2022-08-28T06:40:23.642Z,2388.00
2022-08-28T06:41:23.516Z,2452.00
2022-08-28T06:42:23.576Z,2532.00
2022-08-28T06:43:23.369Z,2612.00
2022-08-28T06:44:23.294Z,2668.00
2022-08-28T06:45:23.219Z,2672.00
2022-08-28T06:46:23.213Z,2632.00
2022-08-28T06:47:23.069Z,2584.00
2022-08-28T06:48:23.012Z,2516.00
2022-08-28T06:49:22.961Z,2428.00
2022-08-28T06:50:22.845Z,2296.00
2022-08-28T06:51:24.878Z,2188.00
2022-08-28T06:52:22.696Z,2076.00
2022-08-28T06:53:22.621Z,2008.00
2022-08-28T06:54:23.581Z,1952.00
2022-08-28T06:55:22.472Z,1920.00
2022-08-28T06:56:26.139Z,1880.00
2022-08-28T06:57:22.322Z,1844.00
2022-08-28T06:58:22.249Z,1796.00
2022-08-28T06:59:22.176Z,1764.00
2022-08-28T07:00:22.149Z,1724.00
2022-08-28T07:01:22.097Z,1720.00
2022-08-28T07:02:22.059Z,1736.00
2022-08-28T07:03:21.876Z,1744.00
2022-08-28T07:04:21.802Z,1792.00
2022-08-28T07:05:21.729Z,1796.00
2022-08-28T07:06:21.653Z,1816.00
2022-08-28T07:07:32.486Z,1848.00
2022-08-28T07:08:21.505Z,1876.00
2022-08-28T07:09:21.430Z,1920.00
2022-08-28T07:10:21.356Z,1980.00
2022-08-28T07:11:21.282Z,2076.00
2022-08-28T07:12:21.206Z,2168.00
2022-08-28T07:13:21.130Z,2240.00
2022-08-28T07:14:21.057Z,2252.00
2022-08-28T07:15:20.983Z,2212.00
2022-08-28T07:16:21.091Z,2212.00
2022-08-28T07:17:20.835Z,2332.00
2022-08-28T07:18:20.758Z,2416.00
2022-08-28T07:19:20.692Z,2580.00
2022-08-28T07:20:20.610Z,2752.00
2022-08-28T07:21:20.542Z,2964.00
2022-08-28T07:22:20.463Z,3128.00
2022-08-28T07:23:20.389Z,3228.00
2022-08-28T07:24:20.415Z,3256.00
2022-08-28T07:25:20.238Z,3196.00
2022-08-28T07:26:20.177Z,3116.00
2022-08-28T07:27:20.091Z,3052.00
2022-08-28T07:28:20.019Z,3004.00
2022-08-28T07:29:19.943Z,3004.00
2022-08-28T07:30:19.868Z,2996.00
2022-08-28T07:31:19.871Z,2924.00
2022-08-28T07:32:19.720Z,2792.00
2022-08-28T07:33:19.647Z,2608.00
2022-08-28T07:34:19.571Z,2440.00
2022-08-28T07:35:19.496Z,2320.00
2022-08-28T07:36:29.286Z,2276.00
2022-08-28T07:37:19.350Z,2240.00
2022-08-28T07:38:19.276Z,2212.00
2022-08-28T07:39:19.200Z,2188.00
2022-08-28T07:40:19.174Z,2184.00
2022-08-28T07:41:19.053Z,2192.00
2022-08-28T07:42:18.981Z,2208.00
2022-08-28T07:43:18.905Z,2220.00
2022-08-28T07:45:18.793Z,2156.00
2022-08-28T07:46:18.959Z,2312.00
2022-08-28T07:47:19.013Z,2360.00
2022-08-28T07:49:18.496Z,2420.00
2022-08-28T07:50:18.421Z,2408.00
2022-08-28T07:52:18.583Z,2548.00
2022-08-28T07:55:18.662Z,3164.00
2022-08-28T07:57:18.105Z,3884.00
2022-08-28T07:58:17.840Z,4204.00
2022-08-28T07:59:19.147Z,4452.00
2022-08-28T08:00:17.649Z,4592.00
2022-08-28T08:01:17.674Z,4804.00
2022-08-28T08:02:17.500Z,4828.00
2022-08-28T08:03:17.480Z,4828.00
2022-08-28T08:04:17.357Z,4792.00
2022-08-28T08:05:17.686Z,4732.00
2022-08-28T08:06:17.206Z,4712.00
2022-08-28T08:07:17.132Z,4436.00
2022-08-28T08:08:17.058Z,4200.00
2022-08-28T08:09:16.983Z,4032.00
2022-08-28T08:10:20.599Z,3884.00
2022-08-28T08:11:16.838Z,3692.00
2022-08-28T08:12:16.765Z,3672.00
2022-08-28T08:13:16.693Z,3368.00
2022-08-28T08:14:16.617Z,3268.00
2022-08-28T08:15:16.545Z,3288.00
2022-08-28T08:16:16.518Z,3428.00
2022-08-28T08:17:16.397Z,3804.00
2022-08-28T08:18:18.942Z,3948.00
2022-08-28T08:19:16.252Z,4224.00
2022-08-28T08:20:16.176Z,4764.00
2022-08-28T08:21:16.142Z,5004.00
2022-08-28T08:22:16.066Z,5308.00
2022-08-28T08:23:15.996Z,5420.00
2022-08-28T08:24:17.988Z,5448.00
2022-08-28T08:25:15.808Z,5420.00
2022-08-28T08:26:17.048Z,5392.00
2022-08-28T08:27:15.664Z,5428.00
2022-08-28T08:28:15.588Z,5456.00
2022-08-28T08:29:15.517Z,5588.00
2022-08-28T08:30:15.444Z,5704.00
2022-08-28T08:31:15.447Z,5744.00
2022-08-28T08:32:15.298Z,5800.00
2022-08-28T08:33:15.226Z,5880.00
2022-08-28T08:34:15.152Z,5988.00
2022-08-28T08:35:15.078Z,6120.00
2022-08-28T08:36:15.006Z,6248.00
2022-08-28T08:37:14.935Z,6232.00
2022-08-28T08:38:14.953Z,6236.00
2022-08-28T08:39:14.786Z,6224.00
2022-08-28T08:40:14.736Z,6112.00
2022-08-28T08:41:14.640Z,6012.00
2022-08-28T08:42:14.567Z,6016.00
2022-08-28T08:43:14.494Z,6128.00
2022-08-28T08:44:14.422Z,6316.00
2022-08-28T08:45:14.349Z,6564.00
2022-08-28T08:46:14.332Z,6816.00
2022-08-28T08:47:15.359Z,7024.00
2022-08-28T08:48:14.339Z,7212.00
2022-08-28T08:49:14.059Z,7308.00
2022-08-28T08:50:13.984Z,7256.00
2022-08-28T08:51:13.925Z,7144.00
2022-08-28T08:52:13.839Z,6952.00
2022-08-28T08:53:13.770Z,6780.00
2022-08-28T08:54:13.694Z,6676.00
2022-08-28T08:55:15.100Z,6704.00
2022-08-28T08:56:13.548Z,6860.00
2022-08-28T08:57:13.478Z,6984.00
2022-08-28T08:58:13.639Z,7120.00
2022-08-28T08:59:13.333Z,7068.00
2022-08-28T09:00:15.879Z,6820.00
2022-08-28T09:01:13.216Z,6588.00
2022-08-28T09:02:13.114Z,6460.00
2022-08-28T09:03:13.170Z,6368.00
2022-08-28T09:04:13.374Z,6292.00
2022-08-28T09:05:12.898Z,6188.00
2022-08-28T09:06:12.822Z,6188.00
2022-08-28T09:07:12.752Z,6208.00
2022-08-28T09:08:12.934Z,6256.00
2022-08-28T09:09:12.608Z,6380.00
2022-08-28T09:10:12.534Z,6548.00
2022-08-28T09:11:12.462Z,6708.00
2022-08-28T09:12:12.390Z,6872.00
2022-08-28T09:13:12.319Z,7076.00
2022-08-28T09:14:12.245Z,7284.00
2022-08-28T09:15:12.324Z,7476.00
2022-08-28T09:16:12.166Z,7628.00
2022-08-28T09:17:12.030Z,7764.00
2022-08-28T09:18:12.237Z,7808.00
2022-08-28T09:19:11.886Z,7832.00
2022-08-28T09:20:11.812Z,7760.00
2022-08-28T09:21:11.742Z,7636.00
2022-08-28T09:22:11.667Z,7584.00
2022-08-28T09:23:11.597Z,7548.00
2022-08-28T09:24:11.524Z,7416.00
2022-08-28T09:25:11.453Z,7236.00
2022-08-28T09:26:11.380Z,7096.00
2022-08-28T09:27:14.445Z,7176.00
2022-08-28T09:28:11.327Z,7396.00
2022-08-28T09:29:11.165Z,7648.00
2022-08-28T09:30:11.093Z,8052.00
2022-08-28T09:31:11.049Z,8264.00
2022-08-28T09:32:13.571Z,8232.00
2022-08-28T09:33:10.886Z,8288.00
2022-08-28T09:34:10.802Z,8372.00
2022-08-28T09:35:10.733Z,8604.00
2022-08-28T09:37:11.324Z,8860.00
2022-08-28T09:38:10.517Z,8824.00
2022-08-28T09:39:10.443Z,8852.00
2022-08-28T09:40:10.393Z,8796.00
2022-08-28T09:41:10.301Z,8536.00
2022-08-28T09:42:10.241Z,8388.00
2022-08-28T09:43:10.155Z,8372.00
2022-08-28T09:44:10.086Z,8428.00
2022-08-28T09:45:10.015Z,8548.00
2022-08-28T09:46:10.031Z,8652.00
2022-08-28T09:47:09.870Z,8780.00
2022-08-28T09:48:09.801Z,8732.00
2022-08-28T09:49:09.727Z,8684.00
2022-08-28T09:50:09.657Z,8672.00
2022-08-28T09:51:09.583Z,8672.00
2022-08-28T09:52:09.615Z,8708.00
2022-08-28T09:53:09.440Z,8700.00
2022-08-28T09:54:09.369Z,8756.00
2022-08-28T09:55:09.294Z,8720.00
2022-08-28T09:56:09.226Z,8752.00
2022-08-28T09:57:09.155Z,8812.00
2022-08-28T09:58:09.122Z,8940.00
2022-08-28T09:59:09.012Z,9112.00
2022-08-28T10:00:08.939Z,9224.00
2022-08-28T10:01:09.095Z,9276.00
2022-08-28T10:02:08.933Z,9304.00
2022-08-28T10:03:08.725Z,9216.00
2022-08-28T10:04:08.691Z,9268.00
2022-08-28T10:05:08.582Z,8992.00
2022-08-28T10:06:08.511Z,8756.00
2022-08-28T10:07:08.439Z,8488.00
2022-08-28T10:08:08.371Z,8184.00
2022-08-28T10:09:08.298Z,7836.00
2022-08-28T10:10:08.327Z,7244.00
2022-08-28T10:11:08.155Z,6476.00
2022-08-28T10:12:08.085Z,6008.00
2022-08-28T10:13:08.011Z,5700.00
2022-08-28T10:14:07.942Z,5528.00
2022-08-28T10:15:07.871Z,5448.00
2022-08-28T10:16:07.824Z,5264.00
2022-08-28T10:17:07.728Z,5104.00
2022-08-28T10:18:07.655Z,5044.00
2022-08-28T10:19:07.584Z,5008.00
2022-08-28T10:20:07.512Z,5032.00
2022-08-28T10:21:07.441Z,5060.00
2022-08-28T10:22:07.371Z,4900.00
2022-08-28T10:23:07.296Z,5012.00
2022-08-28T10:24:07.227Z,5044.00
2022-08-28T10:25:07.157Z,5024.00
2022-08-28T10:26:07.083Z,5060.00
2022-08-28T10:27:07.014Z,5104.00
2022-08-28T10:28:07.028Z,5092.00
2022-08-28T10:29:06.870Z,5156.00
2022-08-28T10:30:09.965Z,5124.00
2022-08-28T10:31:06.766Z,5148.00
2022-08-28T10:32:06.662Z,5164.00
2022-08-28T10:33:06.580Z,5284.00
2022-08-28T10:34:06.510Z,5376.00
2022-08-28T10:35:06.436Z,5280.00
2022-08-28T10:36:06.365Z,5316.00
2022-08-28T10:37:06.296Z,5328.00
2022-08-28T10:38:06.242Z,5460.00
2022-08-28T10:39:06.148Z,5512.00
2022-08-28T10:40:06.102Z,5512.00
2022-08-28T10:41:06.006Z,5512.00
2022-08-28T10:42:06.033Z,5492.00
2022-08-28T10:43:05.862Z,5560.00
2022-08-28T10:44:05.792Z,5676.00
2022-08-28T10:45:05.718Z,5656.00
2022-08-28T10:46:05.710Z,5628.00
2022-08-28T10:47:05.574Z,5568.00
2022-08-28T10:48:05.500Z,5824.00
2022-08-28T10:49:05.529Z,5908.00
2022-08-28T10:50:05.359Z,6840.00
2022-08-28T10:51:05.286Z,6008.00
2022-08-28T10:52:05.217Z,5896.00
2022-08-28T10:53:05.144Z,6092.00
2022-08-28T10:54:05.072Z,6044.00
2022-08-28T10:55:04.999Z,5860.00
2022-08-28T10:56:04.937Z,7104.00
2022-08-28T10:57:04.861Z,20192.00
2022-08-28T10:58:04.801Z,22176.00
2022-08-28T10:59:04.714Z,37024.00
2022-08-28T11:00:04.644Z,17984.00
2022-08-28T11:01:04.649Z,12372.00
2022-08-28T11:02:04.500Z,9048.00
2022-08-28T11:03:04.695Z,9960.00
2022-08-28T11:04:04.359Z,20736.00
2022-08-28T11:05:04.288Z,8964.00
2022-08-28T11:06:04.214Z,9392.00
2022-08-28T11:07:04.144Z,16028.00
2022-08-28T11:08:04.086Z,22240.00
2022-08-28T11:09:04.006Z,9888.00
2022-08-28T11:10:03.934Z,14956.00
2022-08-28T11:11:03.863Z,10992.00
2022-08-28T11:12:03.792Z,10212.00
2022-08-28T11:13:03.721Z,4660.00
2022-08-28T11:14:03.651Z,15020.00
2022-08-28T11:15:03.591Z,19232.00
2022-08-28T11:16:03.511Z,29920.00
2022-08-28T11:17:03.463Z,21696.00
2022-08-28T11:18:03.368Z,9696.00
2022-08-28T11:19:03.297Z,16544.00
2022-08-28T11:20:04.037Z,31424.00
2022-08-28T11:21:03.166Z,29088.00
2022-08-28T11:22:03.087Z,29088.00
2022-08-28T11:23:03.016Z,36640.00
2022-08-28T11:24:02.945Z,20480.00
2022-08-28T11:25:07.660Z,16288.00
2022-08-28T11:26:02.806Z,12568.00
2022-08-28T11:27:02.734Z,17280.00
2022-08-28T11:28:02.666Z,12204.00
2022-08-28T11:29:02.597Z,9636.00
2022-08-28T11:30:02.559Z,8892.00
2022-08-28T11:31:02.543Z,8960.00
2022-08-28T11:32:02.385Z,9660.00
2022-08-28T11:33:02.701Z,9512.00
2022-08-28T11:35:02.210Z,10004.00
2022-08-28T11:36:02.135Z,10376.00
2022-08-28T11:37:02.071Z,9224.00
2022-08-28T11:38:02.019Z,9536.00
2022-08-28T11:39:01.946Z,18240.00
2022-08-28T11:40:01.883Z,15736.00
2022-08-28T11:41:01.754Z,38016.00
2022-08-28T11:42:01.682Z,26752.00
2022-08-28T11:43:01.615Z,34048.00
2022-08-28T11:44:01.545Z,37920.00
2022-08-28T11:45:02.281Z,41312.00
2022-08-28T11:46:01.848Z,75136.00
2022-08-28T11:47:01.437Z,75040.00
2022-08-28T11:48:43.754Z,71296.00
2022-08-28T11:49:43.684Z,67072.00
2022-08-28T11:50:43.619Z,67168.00
2022-08-28T11:51:43.548Z,72480.00
2022-08-28T11:52:43.483Z,73088.00
2022-08-28T11:54:25.905Z,74208.00
2022-08-28T11:55:25.837Z,71456.00
2022-08-28T11:56:30.603Z,72448.00
2022-08-28T11:57:25.705Z,75616.00
2022-08-28T11:58:25.642Z,75104.00
2022-08-28T11:59:25.583Z,75392.00
2022-08-28T12:00:26.926Z,75136.00
2022-08-28T12:01:25.494Z,71008.00
2022-08-28T12:02:25.426Z,70624.00
2022-08-28T12:03:25.316Z,62912.00
2022-08-28T12:04:25.280Z,60896.00
2022-08-28T12:05:25.187Z,72160.00
2022-08-28T12:06:25.124Z,71936.00
2022-08-28T12:07:25.060Z,71456.00
2022-08-28T12:08:24.997Z,73600.00
2022-08-28T12:10:07.426Z,74112.00
2022-08-28T12:11:07.363Z,73888.00
2022-08-28T12:12:07.303Z,72256.00
2022-08-28T12:13:49.734Z,71840.00
2022-08-28T12:14:49.671Z,73056.00
2022-08-28T12:19:02.006Z,70144.00
2022-08-28T12:20:01.945Z,70432.00
2022-08-28T12:21:02.083Z,71008.00
2022-08-28T12:22:01.820Z,71328.00
2022-08-28T12:23:01.760Z,70336.00
2022-08-28T12:24:07.237Z,68704.00
2022-08-28T12:25:05.066Z,68480.00
2022-08-28T12:26:01.575Z,68736.00
2022-08-28T12:27:01.515Z,69472.00
2022-08-28T12:28:01.451Z,69440.00
2022-08-28T12:29:01.395Z,67616.00
2022-08-28T12:30:01.330Z,66144.00
2022-08-28T12:31:01.296Z,66112.00
2022-08-28T12:32:43.706Z,65504.00
2022-08-28T12:33:43.644Z,66208.00
2022-08-28T12:34:43.584Z,66720.00
2022-08-28T12:35:44.011Z,67136.00
2022-08-28T12:36:43.462Z,66144.00
2022-08-28T12:37:51.094Z,65728.00
2022-08-28T12:38:43.342Z,64160.00
2022-08-28T12:39:43.282Z,64480.00
2022-08-28T12:40:43.420Z,65056.00
2022-08-28T12:41:43.164Z,64224.00
2022-08-28T12:42:43.103Z,64128.00
2022-08-28T12:43:46.788Z,62880.00
2022-08-28T12:46:42.866Z,59008.00
2022-08-28T12:50:08.492Z,61952.00